ADDS METAR Data INFO
IDs: Format: Raw Decoded Include TAF

Data at: 1601 UTC 12 Dec 2017

KLAN 121553Z 31014KT 10SM FEW023 BKN060 M08/M12 A2991 RMK AO2 SLP141 T10781122
KLAN 121453Z 31012G20KT 10SM FEW028 OVC060 M08/M12 A2990 RMK AO2 SLP137 T10831117 51016
KLAN 121353Z 31010KT 10SM FEW055 M08/M12 A2988 RMK AO2 SLP132 T10831122
KLAN 121253Z 31012KT 10SM CLR M08/M12 A2987 RMK AO2 SLP128 T10831122
KLAN 121153Z 31012G20KT 10SM CLR M08/M13 A2985 RMK AO2 SLP121 60000 70008 T10781128 11017 21078 53025
KLAN 121053Z 31012G22KT 10SM FEW049 M07/M11 A2982 RMK AO2 PK WND 31026/1000 SLP112 T10721111
KLAN 120953Z 32020G27KT 10SM BKN030 OVC055 M06/M10 A2979 RMK AO2 PK WND 31027/0944 SNB12E23 SLP100 P0000 T10561100
KLAN 120853Z 32015G24KT 10SM FEW024 OVC055 M04/M09 A2977 RMK AO2 PK WND 32028/0805 UPB04E10SNB10E19 SLP093 P0000 60000 T10441089 53018
KLAN 120753Z 32015G24KT 9SM FEW022 OVC037 M03/M07 A2975 RMK AO2 PK WND 34027/0729 SNE48 SLP085 P0000 T10331067
KLAN 120745Z 32015G20KT 8SM -SN SCT024 OVC037 M03/M06 A2975 RMK AO2 PK WND 34027/0729 P0000 T10331061
KLAN 120716Z 32018G24KT 7SM -SN FEW016 OVC024 M03/M06 A2973 RMK AO2 P0000 T10281056
KLAN 120708Z 32015G25KT 2SM -SN BR SCT013 BKN018 OVC022 M03/M05 A2972 RMK AO2 P0000 T10281050
KLAN 120659Z 31014G19KT 1 3/4SM -SN BR BKN013 OVC020 M02/M04 A2972 RMK AO2 P0000 T10221039
KLAN 120653Z 31012G20KT 3SM -SN BR BKN013 OVC018 M02/M03 A2972 RMK AO2 UPB0559E01SNE0554B05 SLP073 P0000 T10221033
KLAN 120651Z 30012G20KT 3SM -SN BR BKN013 OVC018 M02/M03 A2972 RMK AO2 UPB0559E01SNE0554B05 P0000
KLAN 120640Z 31010KT 2SM -SN BR BKN013 BKN019 OVC030 M02/M03 A2971 RMK AO2 UPB0559E01SNE0554B05 P0000 T10221033
KLAN 120635Z 32013KT 1 3/4SM -SN BR SCT013 BKN019 OVC044 M02/M03 A2971 RMK AO2 UPB0559E01SNE0554B05 P0000 T10171033
KLAN 120618Z 32011KT 5SM -SN BR SCT013 BKN018 OVC041 M02/M03 A2971 RMK AO2 UPB0559E01SNE0554B05 P0000 T10171033
KLAN 120553Z 32014G19KT 6SM -SN BR BKN011 OVC016 M01/M03 A2970 RMK AO2 FZRAE20SNB44 SLP068 P0000 60001 I1001 I6003 T10111028 11011 21017 53000
KLAN 120524Z 31013KT 5SM BR OVC010 M01/M02 A2969 RMK AO2 FZRAE20 CIG 005V013 P0000 I1001 T10111022
KLAN 120512Z 30011KT 3SM -FZRA BR OVC008 M01/M02 A2969 RMK AO2 CIG 005V012 P0000 I1001 T10111022
KLAN 120500Z 30014G20KT 2 1/2SM -FZRA BR OVC006 M01/M02 A2969 RMK AO2 CIG 005V010 P0000 I1000 T10111017
KLAN 120453Z 30012KT 3SM -FZRA BR OVC006 M01/M02 A2969 RMK AO2 UPB15E18FZRAB18E44B52 CIG 005V010 SLP064 P0001 I1002 T10111017 410111067
KLAN 120444Z 29010KT 3SM BR BKN006 OVC011 M01/M02 A2969 RMK AO2 UPB15E18FZRAB18E44 P0001 I1002 T10111017
KLAN 120425Z 28007KT 2 1/2SM -FZRA BR BKN008 OVC013 M01/M02 A2969 RMK AO2 UPB15E18FZRAB18 P0000 I1001 T10111022
KLAN 120418Z 27007KT 3SM -FZRA BR BKN013 OVC019 M01/M02 A2969 RMK AO2 UPB15E18FZRAB18 P0000 I1001 T10111022
KLAN 120353Z 25005KT 5SM BR OVC018 M02/M03 A2969 RMK AO2 SNB02E12 SLP064 P0000 T10171028
KLAN 120253Z 23007KT 6SM BR BKN017 OVC027 M02/M03 A2970 RMK AO2 SLP069 T10171028 58010
KLAN 120153Z 22005KT 6SM BR BKN022 OVC037 M02/M03 A2972 RMK AO2 SLP076 T10171028
KLAN 120053Z 20007KT 7SM SCT011 OVC020 M02/M03 A2973 RMK AO2 SLP079 T10171033
KLAN 112353Z 18007KT 7SM OVC010 M02/M03 A2973 RMK AO2 SNB02E26 SLP079 P0000 60000 T10171028 11011 21028 55007
KLAN 112335Z 17005KT 7SM BKN011 OVC050 M02/M03 A2972 RMK AO2 SNB02E26 P0000 T10221033
KLAN 112253Z 16009KT 10SM FEW046 OVC055 M02/M04 A2973 RMK AO2 SLP078 T10171039
KLAN 112153Z 16008KT 10SM BKN048 OVC060 M01/M04 A2974 RMK AO2 SLP083 T10111044
KLAN 112053Z 17007KT 10SM FEW021 OVC055 M01/M04 A2975 RMK AO2 SLP086 T10111044 56034
KLAN 112034Z 18006KT 10SM SCT020 OVC049 M01/M04 A2977 RMK AO2 T10111044
KLAN 111953Z 18010KT 10SM OVC018 M02/M04 A2978 RMK AO2 SLP098 T10171039
KLAN 111853Z 19008KT 10SM OVC018 M02/M04 A2982 RMK AO2 SLP109 T10221039
KLAN 111814Z 17006KT 5SM BR SCT008 OVC014 M03/M04 A2984 RMK AO2 T10281039
KLAN 111753Z 16006KT 3SM BR OVC009 M03/M04 A2986 RMK AO2 CIG 006V014 PRESFR SLP122 60007 I1001 I6001 T10281039 11028 21067 56031
KLAN 111750Z 17006KT 2 1/2SM BR OVC009 M03/M04 A2986 RMK AO2 CIG 006V014 PRESFR I1001
KLAN 111726Z 16007KT 2 1/2SM BR OVC010 M03/M04 A2988 RMK AO2 CIG 006V015 I1001 T10331039
KLAN 111653Z 16005KT 5SM BR BKN012 OVC049 M03/M04 A2992 RMK AO2 SNE42 SLP142 P0001 T10331044
KLAN 111633Z 15006KT 4SM -SN BR SCT041 BKN049 OVC055 M04/M05 A2993 RMK AO2 P0001 T10391050
KLAN 111625Z 15007KT 2 1/2SM -SN BR BKN030 OVC055 M04/M06 A2994 RMK AO2 P0001 T10391056
KLAN 111620Z 14006KT 1 1/2SM R28L/5500VP6000FT -SN BR BKN024 BKN049 OVC055 M04/M06 A2994 RMK AO2 P0001 T10441056
KLAN 111553Z 14008KT 1/2SM R28L/4000V4500FT SN FZFG VV015 M05/M06 A2995 RMK AO2 SLP154 P0003 T10501056
KLAN 111453Z 14007KT 3/4SM R28L/4500V5000FT -SN BR VV015 M06/M07 A2996 RMK AO2 SLP160 P0003 60003 T10611072 58016
KLAN 111400Z 13010KT 3/4SM R28L/5000VP6000FT -SN VV020 M06/M09 A2997 RMK AO2 P0000 T10611089
KLAN 111353Z 14008KT 1 1/2SM -SN OVC024 M06/M09 A2998 RMK AO2 SNB32 SLP164 P0000 T10611094
KLAN 111343Z 13010KT 2 1/2SM -SN FEW017 BKN026 OVC031 M06/M10 A2998 RMK AO2 SNB32 P0000 T10561100
KLAN 111336Z 13008KT 7SM -SN SCT017 OVC031 M06/M11 A2998 RMK AO2 SNB32 P0000 T10561106
KLAN 111253Z 13005KT 10SM BKN017 OVC032 M06/M11 A3001 RMK AO2 SLP175 T10561106
KLAN 111249Z 13005KT 10SM BKN017 OVC031 M06/M11 A3001 RMK AO2
KLAN 111153Z 13003KT 10SM OVC032 M06/M11 A3002 RMK AO2 SLP179 T10561106 11039 21061 55005
KLAN 111053Z 11004KT 10SM OVC032 M06/M10 A3001 RMK AO2 SLP177 T10561100
KLAN 110953Z 07006KT 10SM OVC034 M06/M09 A3002 RMK AO2 SLP178 T10561094
KLAN 110853Z 04004KT 10SM FEW019 OVC033 M05/M09 A3004 RMK AO2 SLP184 T10501094 51010
KLAN 110834Z 36005KT 10SM SCT020 OVC034 M05/M09 A3005 RMK AO2 T10501094
KLAN 110804Z 36004KT 10SM BKN020 OVC037 M05/M08 A3003 RMK AO2 T10501078
KLAN 110753Z 01004KT 10SM SCT022 OVC037 M05/M08 A3003 RMK AO2 SLP181 T10501078
KLAN 110653Z 33003KT 10SM OVC042 M05/M07 A3002 RMK AO2 SLP178 T10501072
KLAN 110553Z 32005KT 10SM OVC044 M04/M07 A3001 RMK AO2 SLP173 60000 T10391067 11033 21039 50007
KLAN 110516Z 30008KT 10SM SCT022 OVC048 M04/M06 A3002 RMK AO2 T10391061
KLAN 110504Z 31007KT 10SM BKN022 OVC050 M04/M06 A3002 RMK AO2 T10391061
KLAN 110453Z 30008KT 10SM SCT022 OVC050 M04/M06 A3002 RMK AO2 SNE07 SLP176 P0000 T10391061 410331061